createdAt,value
2017-01-04T00:01:02.444Z,0
2017-01-04T00:02:12.791Z,0
2017-01-04T00:03:23.030Z,0
2017-01-04T00:04:32.864Z,0
2017-01-04T00:05:43.130Z,0
2017-01-04T00:06:53.011Z,0
2017-01-04T00:08:02.837Z,0
2017-01-04T00:09:13.073Z,0
2017-01-04T00:10:23.350Z,0
2017-01-04T00:11:32.817Z,0
2017-01-04T00:12:42.654Z,0
2017-01-04T00:13:52.494Z,0
2017-01-04T00:15:02.384Z,0
2017-01-04T00:16:12.655Z,0
2017-01-04T00:17:22.532Z,0
2017-01-04T00:18:31.975Z,0
2017-01-04T00:19:41.823Z,0
2017-01-04T00:20:51.733Z,0
2017-01-04T00:22:01.583Z,0
2017-01-04T00:23:11.855Z,0
2017-01-04T00:24:22.153Z,0
2017-01-04T00:25:32.457Z,0
2017-01-04T00:26:42.292Z,0
2017-01-04T00:27:52.595Z,0
2017-01-04T00:29:02.828Z,0
2017-01-04T00:30:13.121Z,0
2017-01-04T00:31:22.553Z,0
2017-01-04T00:32:32.419Z,0
2017-01-04T00:33:42.337Z,0
2017-01-04T00:34:52.179Z,0
2017-01-04T00:36:02.478Z,0
2017-01-04T00:37:12.741Z,0
2017-01-04T00:38:22.566Z,0
2017-01-04T00:39:32.417Z,0
2017-01-04T00:40:41.843Z,0
2017-01-04T00:41:51.418Z,0
2017-01-04T00:43:00.876Z,0
2017-01-04T00:44:11.129Z,0
2017-01-04T00:45:21.371Z,0
2017-01-04T00:46:31.214Z,0
2017-01-04T00:47:41.043Z,0
2017-01-04T00:48:51.069Z,0
2017-01-04T00:50:01.323Z,0
2017-01-04T00:51:11.597Z,0
2017-01-04T00:52:21.827Z,0
2017-01-04T00:53:32.129Z,0
2017-01-04T00:54:41.994Z,0
2017-01-04T00:55:52.247Z,0
2017-01-04T00:57:02.591Z,0
2017-01-04T00:58:11.628Z,0
2017-01-04T00:59:21.863Z,0
2017-01-04T01:00:32.090Z,0
2017-01-04T01:01:41.952Z,0
2017-01-04T01:02:51.799Z,0
2017-01-04T01:04:01.275Z,0
2017-01-04T01:05:11.566Z,0
2017-01-04T01:06:21.831Z,0
2017-01-04T01:07:31.726Z,0
2017-01-04T01:08:41.552Z,0
2017-01-04T01:09:51.821Z,0
2017-01-04T01:11:02.228Z,0
2017-01-04T01:12:12.501Z,0
2017-01-04T01:13:22.748Z,0
2017-01-04T01:14:33.002Z,0
2017-01-04T01:15:43.379Z,0
2017-01-04T01:16:53.616Z,0
2017-01-04T01:18:03.998Z,0
2017-01-04T01:19:14.296Z,0
2017-01-04T01:20:24.178Z,0
2017-01-04T01:21:34.513Z,0
2017-01-04T01:22:44.344Z,0
2017-01-04T01:23:54.729Z,0
2017-01-04T01:25:04.659Z,0
2017-01-04T01:26:14.108Z,0
2017-01-04T01:27:23.956Z,0
2017-01-04T01:28:34.246Z,0
2017-01-04T01:29:44.495Z,0
2017-01-04T01:30:54.728Z,0
2017-01-04T01:32:05.071Z,0
2017-01-04T01:33:14.492Z,0
2017-01-04T01:34:24.374Z,0
2017-01-04T01:35:34.926Z,0
2017-01-04T01:36:45.151Z,0
2017-01-04T01:37:55.386Z,0
2017-01-04T01:39:05.660Z,0
2017-01-04T01:40:15.484Z,0
2017-01-04T01:41:25.332Z,0
2017-01-04T01:42:34.363Z,0
2017-01-04T01:43:44.607Z,0
2017-01-04T01:44:54.463Z,0
2017-01-04T01:46:03.957Z,0
2017-01-04T01:47:14.203Z,0
2017-01-04T01:48:23.643Z,0
2017-01-04T01:49:33.909Z,0
2017-01-04T01:50:44.141Z,0
2017-01-04T01:51:54.361Z,0
2017-01-04T01:53:04.597Z,0
2017-01-04T01:54:14.456Z,0
2017-01-04T01:55:24.026Z,0
2017-01-04T01:56:33.462Z,0
2017-01-04T01:57:43.697Z,0
2017-01-04T01:58:53.953Z,0
2017-01-04T02:00:04.260Z,0
2017-01-04T02:01:14.508Z,0
2017-01-04T02:02:24.762Z,0
2017-01-04T02:03:34.617Z,0
2017-01-04T02:04:44.938Z,0
2017-01-04T02:05:54.910Z,0
2017-01-04T02:07:04.779Z,0
2017-01-04T02:08:15.050Z,0
2017-01-04T02:09:25.295Z,0
2017-01-04T02:10:35.215Z,0
2017-01-04T02:11:45.495Z,0
2017-01-04T02:12:55.342Z,0
2017-01-04T02:14:05.013Z,0
2017-01-04T02:15:15.323Z,0
2017-01-04T02:16:25.574Z,0
2017-01-04T02:17:35.532Z,0
2017-01-04T02:18:45.442Z,0
2017-01-04T02:19:55.799Z,0
2017-01-04T02:21:05.294Z,0
2017-01-04T02:22:46.910Z,0
2017-01-04T02:23:56.739Z,0
2017-01-04T02:25:07.001Z,0
2017-01-04T02:26:17.349Z,0
2017-01-04T02:27:27.238Z,0
2017-01-04T02:28:37.495Z,0
2017-01-04T02:29:46.935Z,0
2017-01-04T02:30:57.172Z,0
2017-01-04T02:32:07.054Z,0
2017-01-04T02:33:17.340Z,0
2017-01-04T02:34:27.785Z,0
2017-01-04T02:35:38.248Z,0
2017-01-04T02:36:48.102Z,0
2017-01-04T02:37:58.174Z,0
2017-01-04T02:39:08.444Z,0
2017-01-04T02:40:18.341Z,0
2017-01-04T02:41:28.347Z,0
2017-01-04T02:42:38.708Z,0
2017-01-04T02:43:48.955Z,0
2017-01-04T02:44:59.230Z,0
2017-01-04T02:46:09.486Z,0
2017-01-04T02:47:19.464Z,0
2017-01-04T02:48:29.736Z,0
2017-01-04T02:49:40.022Z,0
2017-01-04T02:50:49.848Z,0
2017-01-04T02:52:00.083Z,0
2017-01-04T02:53:09.950Z,0
2017-01-04T02:54:19.840Z,0
2017-01-04T02:55:29.667Z,0
2017-01-04T02:56:40.185Z,0
2017-01-04T02:57:50.483Z,0
2017-01-04T02:59:00.736Z,0
2017-01-04T03:00:11.002Z,0
2017-01-04T03:01:20.857Z,0
2017-01-04T03:02:30.340Z,0
2017-01-04T03:03:40.584Z,0
2017-01-04T03:04:50.439Z,0
2017-01-04T03:06:00.664Z,0
2017-01-04T03:07:10.898Z,0
2017-01-04T03:08:21.227Z,0
2017-01-04T03:09:31.055Z,0
2017-01-04T03:10:41.285Z,0
2017-01-04T03:11:51.128Z,0
2017-01-04T03:13:01.407Z,0
2017-01-04T03:14:10.835Z,0
2017-01-04T03:15:20.723Z,0
2017-01-04T03:16:30.991Z,0
2017-01-04T03:17:40.893Z,0
2017-01-04T03:18:51.170Z,0
2017-01-04T03:20:01.440Z,0
2017-01-04T03:21:11.675Z,0
2017-01-04T03:22:21.913Z,0
2017-01-04T03:23:31.770Z,0
2017-01-04T03:24:41.209Z,0
2017-01-04T03:25:50.654Z,0
2017-01-04T03:27:00.534Z,0
2017-01-04T03:28:10.785Z,0
2017-01-04T03:29:21.202Z,0
2017-01-04T03:30:30.662Z,0
2017-01-04T03:31:40.541Z,0
2017-01-04T03:32:50.854Z,0
2017-01-04T03:34:00.767Z,0
2017-01-04T03:35:10.198Z,0
2017-01-04T03:36:19.247Z,0
2017-01-04T03:37:29.128Z,0
2017-01-04T03:38:39.056Z,0
2017-01-04T03:39:48.500Z,0
2017-01-04T03:40:58.779Z,0
2017-01-04T03:42:08.205Z,0
2017-01-04T03:43:17.661Z,0
2017-01-04T03:44:27.985Z,0
2017-01-04T03:45:37.853Z,0
2017-01-04T03:46:47.751Z,0
2017-01-04T03:47:57.182Z,0
2017-01-04T03:49:07.511Z,0
2017-01-04T03:50:17.826Z,0
2017-01-04T03:51:27.843Z,0
2017-01-04T03:52:38.133Z,0
2017-01-04T03:53:48.533Z,0
2017-01-04T03:54:58.383Z,0
2017-01-04T03:56:07.845Z,0
2017-01-04T03:57:17.334Z,0
2017-01-04T03:58:27.561Z,0
2017-01-04T03:59:37.621Z,0
2017-01-04T04:00:47.870Z,0
2017-01-04T04:01:58.125Z,0
2017-01-04T04:03:08.547Z,0
2017-01-04T04:04:18.782Z,0
2017-01-04T04:05:29.105Z,0
2017-01-04T04:06:39.371Z,0
2017-01-04T04:07:49.594Z,0
2017-01-04T04:08:59.910Z,0
2017-01-04T04:10:10.148Z,0
2017-01-04T04:11:20.073Z,0
2017-01-04T04:12:29.541Z,0
2017-01-04T04:13:38.994Z,0
2017-01-04T04:14:48.903Z,0
2017-01-04T04:15:59.248Z,0
2017-01-04T04:17:09.084Z,0
2017-01-04T04:18:18.944Z,0
2017-01-04T04:19:29.219Z,0
2017-01-04T04:20:39.488Z,0
2017-01-04T04:21:49.375Z,0
2017-01-04T04:22:58.797Z,0
2017-01-04T04:24:09.035Z,0
2017-01-04T04:25:18.897Z,0
2017-01-04T04:26:29.235Z,0
2017-01-04T04:27:39.495Z,0
2017-01-04T04:28:49.329Z,0
2017-01-04T04:29:59.175Z,0
2017-01-04T04:31:09.014Z,0
2017-01-04T04:32:19.266Z,0
2017-01-04T04:33:29.556Z,0
2017-01-04T04:34:39.431Z,0
2017-01-04T04:35:49.249Z,0
2017-01-04T04:36:58.684Z,0
2017-01-04T04:38:09.041Z,0
2017-01-04T04:39:19.291Z,0
2017-01-04T04:40:29.294Z,0
2017-01-04T04:41:39.556Z,0
2017-01-04T04:42:49.440Z,0
2017-01-04T04:43:59.699Z,0
2017-01-04T04:45:09.546Z,0
2017-01-04T04:46:19.197Z,0
2017-01-04T04:47:29.037Z,0
2017-01-04T04:48:38.909Z,0
2017-01-04T04:49:48.738Z,0
2017-01-04T04:50:58.974Z,0
2017-01-04T04:52:09.310Z,0
2017-01-04T04:53:19.670Z,0
2017-01-04T04:54:29.527Z,0
2017-01-04T04:55:39.355Z,0
2017-01-04T04:56:49.621Z,0
2017-01-04T04:57:59.885Z,0
2017-01-04T04:59:09.334Z,0
2017-01-04T05:00:18.405Z,0
2017-01-04T05:01:28.675Z,0
2017-01-04T05:02:38.934Z,0
2017-01-04T05:03:48.943Z,0
2017-01-04T05:04:59.194Z,0
2017-01-04T05:06:09.473Z,0
2017-01-04T05:07:19.317Z,0
2017-01-04T05:08:29.153Z,0
2017-01-04T05:09:38.977Z,0
2017-01-04T05:10:49.212Z,0
2017-01-04T05:11:59.699Z,0
2017-01-04T05:13:09.938Z,0
2017-01-04T05:14:18.989Z,0
2017-01-04T05:15:29.271Z,0
2017-01-04T05:16:39.230Z,0
2017-01-04T05:17:49.133Z,0
2017-01-04T05:18:58.568Z,0
2017-01-04T05:20:08.795Z,0
2017-01-04T05:21:18.704Z,0
2017-01-04T05:22:28.675Z,0
2017-01-04T05:23:39.009Z,0
2017-01-04T05:24:49.286Z,0
2017-01-04T05:25:57.952Z,0
2017-01-04T05:27:08.318Z,0
2017-01-04T05:28:18.196Z,0
2017-01-04T05:29:28.018Z,0
2017-01-04T05:30:37.842Z,0
2017-01-04T05:31:47.686Z,0
2017-01-04T05:32:57.930Z,0
2017-01-04T05:34:08.257Z,0
2017-01-04T05:35:18.504Z,0
2017-01-04T05:36:28.348Z,0
2017-01-04T05:37:38.638Z,0
2017-01-04T05:38:48.973Z,0
2017-01-04T05:39:59.212Z,0
2017-01-04T05:41:09.097Z,0
2017-01-04T05:42:19.020Z,0
2017-01-04T05:43:29.285Z,0
2017-01-04T05:44:38.710Z,0
2017-01-04T05:45:48.976Z,0
2017-01-04T05:46:58.817Z,0
2017-01-04T05:48:09.069Z,0
2017-01-04T05:49:19.473Z,0
2017-01-04T05:50:28.965Z,0
2017-01-04T05:51:39.234Z,0
2017-01-04T05:52:49.060Z,0
2017-01-04T05:53:58.890Z,0
2017-01-04T05:55:08.819Z,0
2017-01-04T05:56:19.052Z,0
2017-01-04T05:57:28.893Z,0
2017-01-04T05:58:39.123Z,0
2017-01-04T05:59:48.963Z,0
2017-01-04T06:00:58.864Z,0
2017-01-04T06:02:09.132Z,0
2017-01-04T06:03:19.110Z,0
2017-01-04T06:04:29.487Z,0
2017-01-04T06:05:39.968Z,0
2017-01-04T06:06:49.396Z,0
2017-01-04T06:07:59.284Z,0
2017-01-04T06:09:09.564Z,0
2017-01-04T06:10:19.805Z,0
2017-01-04T06:11:30.038Z,0
2017-01-04T06:12:40.373Z,0
2017-01-04T06:13:50.705Z,0
2017-01-04T06:15:00.126Z,0
2017-01-04T06:16:10.412Z,0
2017-01-04T06:17:20.658Z,0
2017-01-04T06:18:30.134Z,0
2017-01-04T06:19:39.169Z,0
2017-01-04T06:20:49.491Z,0
2017-01-04T06:21:59.792Z,0
2017-01-04T06:23:10.070Z,0
2017-01-04T06:24:19.922Z,0
2017-01-04T06:25:30.200Z,0
2017-01-04T06:26:40.065Z,0
2017-01-04T06:27:50.463Z,0
2017-01-04T06:28:59.881Z,0
2017-01-04T06:30:10.165Z,0
2017-01-04T06:31:19.993Z,0
2017-01-04T06:32:30.256Z,0
2017-01-04T06:33:40.488Z,0
2017-01-04T06:34:50.719Z,0
2017-01-04T06:36:00.617Z,0
2017-01-04T06:37:10.057Z,0
2017-01-04T06:38:19.891Z,0
2017-01-04T06:39:30.166Z,0
2017-01-04T06:40:40.527Z,0
2017-01-04T06:41:50.765Z,0
2017-01-04T06:43:00.604Z,0
2017-01-04T06:44:10.032Z,0
2017-01-04T06:45:20.447Z,0
2017-01-04T06:46:30.711Z,0
2017-01-04T06:47:40.968Z,0
2017-01-04T06:48:51.228Z,0
2017-01-04T06:50:01.478Z,0
2017-01-04T06:51:11.380Z,0
2017-01-04T06:52:21.691Z,0
2017-01-04T06:53:31.976Z,0
2017-01-04T06:54:41.876Z,0
2017-01-04T06:55:51.326Z,0
2017-01-04T06:57:01.590Z,0
2017-01-04T06:58:11.866Z,0
2017-01-04T06:59:21.790Z,0
2017-01-04T07:00:32.063Z,0
2017-01-04T07:01:41.927Z,0
2017-01-04T07:02:52.165Z,0
2017-01-04T07:04:02.037Z,0
2017-01-04T07:05:11.907Z,0
2017-01-04T07:06:22.222Z,0
2017-01-04T07:07:32.079Z,0
2017-01-04T07:08:42.322Z,0
2017-01-04T07:09:52.187Z,5
2017-01-04T07:11:02.006Z,5
2017-01-04T07:12:11.852Z,5
2017-01-04T07:13:21.678Z,5
2017-01-04T07:14:31.149Z,5
2017-01-04T07:15:40.980Z,5
2017-01-04T07:16:51.243Z,5
2017-01-04T07:18:01.079Z,5
2017-01-04T07:19:11.358Z,5
2017-01-04T07:20:21.635Z,5
2017-01-04T07:21:31.054Z,5
2017-01-04T07:22:40.903Z,5
2017-01-04T07:23:50.833Z,5
2017-01-04T07:25:00.706Z,5
2017-01-04T07:26:10.978Z,5
2017-01-04T07:27:20.914Z,5
2017-01-04T07:28:31.193Z,5
2017-01-04T07:29:41.469Z,5
2017-01-04T07:30:51.707Z,5
2017-01-04T07:32:01.216Z,5
2017-01-04T07:33:11.050Z,10
2017-01-04T07:34:20.929Z,10
2017-01-04T07:35:30.360Z,15
2017-01-04T07:36:40.628Z,15
2017-01-04T07:37:50.900Z,15
2017-01-04T07:39:01.137Z,15
2017-01-04T07:40:11.375Z,15
2017-01-04T07:41:21.246Z,20
2017-01-04T07:42:30.719Z,20
2017-01-04T07:43:41.089Z,20
2017-01-04T07:44:51.013Z,20
2017-01-04T07:46:01.245Z,20
2017-01-04T07:47:11.088Z,20
2017-01-04T07:48:20.916Z,25
2017-01-04T07:49:30.738Z,25
2017-01-04T07:50:41.036Z,30
2017-01-04T07:51:50.875Z,25
2017-01-04T07:53:01.248Z,25
2017-01-04T07:54:10.718Z,35
2017-01-04T07:55:20.964Z,30
2017-01-04T07:56:30.815Z,20
2017-01-04T07:57:40.257Z,20
2017-01-04T07:58:49.754Z,20
2017-01-04T07:59:59.995Z,30
2017-01-04T08:01:09.832Z,35
2017-01-04T08:02:19.684Z,45
2017-01-04T08:03:29.563Z,45
2017-01-04T08:04:39.287Z,50
2017-01-04T08:05:49.563Z,60
2017-01-04T08:06:59.831Z,70
2017-01-04T08:08:10.147Z,75
2017-01-04T08:09:19.622Z,80
2017-01-04T08:10:29.881Z,85
2017-01-04T08:11:40.119Z,90
2017-01-04T08:12:49.954Z,100
2017-01-04T08:13:59.409Z,110
2017-01-04T08:15:09.778Z,130
2017-01-04T08:16:20.045Z,175
2017-01-04T08:17:30.024Z,195
2017-01-04T08:18:39.883Z,160
2017-01-04T08:19:50.847Z,125
2017-01-04T08:21:00.731Z,125
2017-01-04T08:22:10.851Z,120
2017-01-04T08:23:20.399Z,115
2017-01-04T08:24:30.254Z,110
2017-01-04T08:25:40.484Z,115
2017-01-04T08:26:50.361Z,120
2017-01-04T08:27:59.799Z,110
2017-01-04T08:29:10.052Z,125
2017-01-04T08:30:19.951Z,140
2017-01-04T08:31:29.817Z,160
2017-01-04T08:32:40.098Z,170
2017-01-04T08:33:50.520Z,185
2017-01-04T08:35:00.349Z,205
2017-01-04T08:36:10.597Z,205
2017-01-04T08:37:20.426Z,210
2017-01-04T08:38:30.681Z,210
2017-01-04T08:39:40.539Z,235
2017-01-04T08:40:50.796Z,275
2017-01-04T08:42:00.246Z,295
2017-01-04T08:43:10.103Z,300
2017-01-04T08:44:19.949Z,300
2017-01-04T08:45:30.207Z,300
2017-01-04T08:46:40.468Z,265
2017-01-04T08:47:50.334Z,310
2017-01-04T08:49:00.594Z,340
2017-01-04T08:50:10.115Z,340
2017-01-04T08:51:20.548Z,300
2017-01-04T08:52:30.387Z,310
2017-01-04T08:53:40.261Z,250
2017-01-04T08:54:49.764Z,210
2017-01-04T08:55:59.616Z,235
2017-01-04T08:57:09.891Z,265
2017-01-04T08:58:20.223Z,295
2017-01-04T08:59:30.445Z,295
2017-01-04T09:00:40.672Z,290
2017-01-04T09:01:51.025Z,290
2017-01-04T09:03:00.479Z,330
2017-01-04T09:04:10.763Z,400
2017-01-04T09:05:21.009Z,455
2017-01-04T09:06:31.247Z,510
2017-01-04T09:07:40.814Z,450
2017-01-04T09:08:50.704Z,365
2017-01-04T09:10:00.941Z,305
2017-01-04T09:11:10.817Z,280
2017-01-04T09:12:20.712Z,250
2017-01-04T09:13:30.969Z,250
2017-01-04T09:14:41.303Z,235
2017-01-04T09:15:51.153Z,205
2017-01-04T09:17:01.673Z,225
2017-01-04T09:18:11.487Z,235
2017-01-04T09:19:21.343Z,235
2017-01-04T09:20:31.616Z,235
2017-01-04T09:21:41.535Z,230
2017-01-04T09:22:51.491Z,215
2017-01-04T09:24:01.724Z,195
2017-01-04T09:25:11.245Z,160
2017-01-04T09:26:21.162Z,145
2017-01-04T09:27:31.398Z,145
2017-01-04T09:28:41.291Z,165
2017-01-04T09:29:51.167Z,180
2017-01-04T09:31:00.995Z,200
2017-01-04T09:32:10.031Z,205
2017-01-04T09:33:20.319Z,200
2017-01-04T09:34:30.604Z,195
2017-01-04T09:35:40.446Z,195
2017-01-04T09:36:50.705Z,210
2017-01-04T09:38:00.968Z,220
2017-01-04T09:39:11.293Z,235
2017-01-04T09:40:21.560Z,250
2017-01-04T09:41:30.993Z,265
2017-01-04T09:42:40.850Z,290
2017-01-04T09:43:50.712Z,315
2017-01-04T09:45:00.232Z,340
2017-01-04T09:46:10.479Z,365
2017-01-04T09:47:19.920Z,375
2017-01-04T09:48:30.197Z,380
2017-01-04T09:49:40.513Z,375
2017-01-04T09:50:51.082Z,385
2017-01-04T09:52:00.912Z,395
2017-01-04T09:53:11.160Z,405
2017-01-04T09:54:20.607Z,415
2017-01-04T09:55:30.839Z,420
2017-01-04T09:56:40.670Z,410
2017-01-04T09:57:50.614Z,410
2017-01-04T09:59:00.868Z,425
2017-01-04T10:00:10.732Z,420
2017-01-04T10:01:20.989Z,420
2017-01-04T10:02:30.860Z,415
2017-01-04T10:03:40.690Z,395
2017-01-04T10:04:50.628Z,400
2017-01-04T10:06:00.463Z,400
2017-01-04T10:07:10.301Z,400
2017-01-04T10:08:20.125Z,400
2017-01-04T10:09:30.364Z,405
2017-01-04T10:11:11.645Z,395
2017-01-04T10:12:21.978Z,425
2017-01-04T10:13:32.307Z,380
2017-01-04T10:14:42.560Z,360
2017-01-04T10:15:52.442Z,450
2017-01-04T10:17:02.674Z,480
2017-01-04T10:18:12.518Z,430
2017-01-04T10:19:22.403Z,415
2017-01-04T10:20:32.294Z,415
2017-01-04T10:21:42.563Z,425
2017-01-04T10:22:52.433Z,440
2017-01-04T10:24:02.817Z,480
2017-01-04T10:25:12.758Z,605
2017-01-04T10:26:23.039Z,620
2017-01-04T10:27:33.321Z,660
2017-01-04T10:28:43.689Z,580
2017-01-04T10:29:53.140Z,605
2017-01-04T10:31:02.976Z,645
2017-01-04T10:32:13.247Z,690
2017-01-04T10:33:23.184Z,515
2017-01-04T10:34:33.452Z,740
2017-01-04T10:35:43.281Z,725
2017-01-04T10:36:53.659Z,565
2017-01-04T10:38:03.504Z,525
2017-01-04T10:39:13.426Z,680
2017-01-04T10:40:23.683Z,745
2017-01-04T10:41:33.983Z,780
2017-01-04T10:42:43.822Z,720
2017-01-04T10:43:54.064Z,630
2017-01-04T10:45:04.282Z,620
2017-01-04T10:46:14.554Z,615
2017-01-04T10:47:24.025Z,630
2017-01-04T10:48:34.265Z,765
2017-01-04T10:49:44.502Z,780
2017-01-04T10:50:54.355Z,860
2017-01-04T10:52:03.796Z,635
2017-01-04T10:53:13.628Z,660
2017-01-04T10:54:23.482Z,825
2017-01-04T10:55:33.399Z,685
2017-01-04T10:56:43.672Z,580
2017-01-04T10:57:53.963Z,480
2017-01-04T10:59:03.849Z,375
2017-01-04T11:00:14.292Z,350
2017-01-04T11:01:24.161Z,325
2017-01-04T11:02:34.428Z,320
2017-01-04T11:03:43.858Z,340
2017-01-04T11:04:53.736Z,325
2017-01-04T11:06:03.989Z,295
2017-01-04T11:07:14.275Z,265
2017-01-04T11:08:24.550Z,240
2017-01-04T11:09:34.428Z,225
2017-01-04T11:10:44.309Z,210
2017-01-04T11:11:54.179Z,185
2017-01-04T11:13:04.430Z,160
2017-01-04T11:14:14.704Z,150
2017-01-04T11:15:24.653Z,165
2017-01-04T11:16:34.209Z,155
2017-01-04T11:17:44.471Z,110
2017-01-04T11:18:54.316Z,80
2017-01-04T11:20:04.180Z,85
2017-01-04T11:21:14.461Z,90
2017-01-04T11:22:24.711Z,85
2017-01-04T11:23:34.587Z,100
2017-01-04T11:24:44.843Z,130
2017-01-04T11:25:54.736Z,160
2017-01-04T11:27:04.601Z,190
2017-01-04T11:28:14.887Z,200
2017-01-04T11:29:25.131Z,225
2017-01-04T11:30:34.986Z,240
2017-01-04T11:31:44.818Z,220
2017-01-04T11:32:54.669Z,250
2017-01-04T11:34:04.519Z,230
2017-01-04T11:35:14.815Z,200
2017-01-04T11:36:25.064Z,160
2017-01-04T11:37:35.369Z,135
2017-01-04T11:38:45.715Z,105
2017-01-04T11:39:55.582Z,60
2017-01-04T11:41:05.898Z,40
2017-01-04T11:42:15.451Z,55
2017-01-04T11:43:25.287Z,55
2017-01-04T11:44:35.532Z,70
2017-01-04T11:45:45.911Z,105
2017-01-04T11:46:55.744Z,130
2017-01-04T11:48:05.974Z,145
2017-01-04T11:49:15.907Z,175
2017-01-04T11:50:25.776Z,170
2017-01-04T11:51:35.628Z,185
2017-01-04T11:52:44.669Z,195
2017-01-04T11:53:54.974Z,190
2017-01-04T11:55:05.207Z,190
2017-01-04T11:56:15.052Z,175
2017-01-04T11:57:24.950Z,120
2017-01-04T11:58:35.177Z,145
2017-01-04T11:59:45.469Z,130
2017-01-04T12:00:55.725Z,140
2017-01-04T12:02:05.954Z,145
2017-01-04T12:03:15.813Z,150
2017-01-04T12:04:25.694Z,160
2017-01-04T12:05:36.187Z,155
2017-01-04T12:06:46.425Z,150
2017-01-04T12:07:56.713Z,125
2017-01-04T12:09:06.968Z,145
2017-01-04T12:10:17.265Z,140
2017-01-04T12:11:27.158Z,125
2017-01-04T12:12:37.113Z,125
2017-01-04T12:13:46.974Z,110
2017-01-04T12:14:56.824Z,100
2017-01-04T12:16:06.362Z,85
2017-01-04T12:17:15.395Z,85
2017-01-04T12:18:24.915Z,65
2017-01-04T12:19:35.170Z,65
2017-01-04T12:20:44.994Z,75
2017-01-04T12:21:54.835Z,80
2017-01-04T12:23:05.106Z,95
2017-01-04T12:24:14.552Z,115
2017-01-04T12:25:24.383Z,160
2017-01-04T12:26:34.743Z,165
2017-01-04T12:27:44.655Z,170
2017-01-04T12:28:55.023Z,165
2017-01-04T12:30:04.853Z,195
2017-01-04T12:31:14.724Z,275
2017-01-04T12:32:24.585Z,360
2017-01-04T12:33:34.425Z,435
2017-01-04T12:34:44.713Z,305
2017-01-04T12:35:54.964Z,320
2017-01-04T12:37:05.304Z,325
2017-01-04T12:38:15.545Z,265
2017-01-04T12:39:25.783Z,190
2017-01-04T12:40:36.054Z,215
2017-01-04T12:41:46.293Z,280
2017-01-04T12:42:56.638Z,250
2017-01-04T12:44:06.922Z,245
2017-01-04T12:45:16.434Z,270
2017-01-04T12:46:26.389Z,260
2017-01-04T12:47:36.639Z,265
2017-01-04T12:48:46.908Z,350
2017-01-04T12:49:56.764Z,395
2017-01-04T12:51:06.648Z,440
2017-01-04T12:52:16.519Z,395
2017-01-04T12:53:26.010Z,270
2017-01-04T12:54:35.501Z,255
2017-01-04T12:55:44.990Z,225
2017-01-04T12:56:55.282Z,275
2017-01-04T12:58:05.597Z,205
2017-01-04T12:59:15.821Z,255
2017-01-04T13:00:26.092Z,245
2017-01-04T13:01:35.977Z,190
2017-01-04T13:02:46.240Z,220
2017-01-04T13:03:56.124Z,230
2017-01-04T13:05:05.974Z,305
2017-01-04T13:06:16.242Z,280
2017-01-04T13:07:26.175Z,310
2017-01-04T13:08:36.050Z,430
2017-01-04T13:09:45.910Z,430
2017-01-04T13:10:55.401Z,365
2017-01-04T13:12:04.857Z,325
2017-01-04T13:13:15.262Z,375
2017-01-04T13:14:25.174Z,440
2017-01-04T13:15:35.008Z,385
2017-01-04T13:16:45.248Z,340
2017-01-04T13:17:55.173Z,415
2017-01-04T13:19:05.037Z,380
2017-01-04T13:20:14.921Z,435
2017-01-04T13:21:24.767Z,410
2017-01-04T13:22:35.284Z,405
2017-01-04T13:23:45.141Z,335
2017-01-04T13:24:55.383Z,350
2017-01-04T13:26:05.268Z,285
2017-01-04T13:27:15.695Z,255
2017-01-04T13:28:25.926Z,270
2017-01-04T13:29:36.194Z,285
2017-01-04T13:30:46.085Z,345
2017-01-04T13:31:56.014Z,315
2017-01-04T13:33:06.271Z,275
2017-01-04T13:34:16.554Z,315
2017-01-04T13:35:26.579Z,300
2017-01-04T13:36:36.923Z,265
2017-01-04T13:37:47.343Z,250
2017-01-04T13:38:56.868Z,225
2017-01-04T13:40:06.818Z,215
2017-01-04T13:41:16.293Z,225
2017-01-04T13:42:26.527Z,300
2017-01-04T13:43:36.366Z,220
2017-01-04T13:44:46.617Z,220
2017-01-04T13:45:56.969Z,220
2017-01-04T13:47:06.867Z,225
2017-01-04T13:48:17.166Z,250
2017-01-04T13:49:27.061Z,280
2017-01-04T13:50:37.360Z,380
2017-01-04T13:51:47.239Z,370
2017-01-04T13:52:57.490Z,335
2017-01-04T13:54:07.429Z,330
2017-01-04T13:55:17.659Z,290
2017-01-04T13:56:27.975Z,205
2017-01-04T13:57:37.837Z,210
2017-01-04T13:58:48.102Z,145
2017-01-04T13:59:57.963Z,130
2017-01-04T14:01:07.498Z,130
2017-01-04T14:02:17.728Z,180
2017-01-04T14:03:27.561Z,205
2017-01-04T14:04:37.858Z,215
2017-01-04T14:05:47.725Z,180
2017-01-04T14:06:58.075Z,160
2017-01-04T14:08:07.937Z,135
2017-01-04T14:09:18.286Z,150
2017-01-04T14:10:28.536Z,190
2017-01-04T14:11:38.815Z,205
2017-01-04T14:12:49.108Z,130
2017-01-04T14:13:59.001Z,110
2017-01-04T14:15:09.259Z,85
2017-01-04T14:16:19.127Z,75
2017-01-04T14:17:29.429Z,80
2017-01-04T14:18:39.732Z,90
2017-01-04T14:19:49.969Z,95
2017-01-04T14:20:59.838Z,100
2017-01-04T14:22:10.134Z,100
2017-01-04T14:23:20.412Z,105
2017-01-04T14:24:30.717Z,100
2017-01-04T14:25:41.009Z,110
2017-01-04T14:26:50.483Z,130
2017-01-04T14:28:00.372Z,125
2017-01-04T14:29:10.628Z,90
2017-01-04T14:30:20.860Z,75
2017-01-04T14:31:31.128Z,100
2017-01-04T14:32:41.456Z,115
2017-01-04T14:33:51.706Z,110
2017-01-04T14:35:01.956Z,95
2017-01-04T14:36:11.866Z,90
2017-01-04T14:37:21.708Z,80
2017-01-04T14:38:31.562Z,85
2017-01-04T14:39:41.412Z,95
2017-01-04T14:40:51.259Z,90
2017-01-04T14:42:01.197Z,80
2017-01-04T14:43:11.580Z,65
2017-01-04T14:44:21.415Z,70
2017-01-04T14:45:31.803Z,70
2017-01-04T14:46:42.111Z,55
2017-01-04T14:47:52.359Z,55
2017-01-04T14:49:02.239Z,55
2017-01-04T14:50:12.082Z,50
2017-01-04T14:51:22.061Z,45
2017-01-04T14:52:32.514Z,45
2017-01-04T14:53:42.893Z,45
2017-01-04T14:54:53.222Z,65
2017-01-04T14:56:02.713Z,75
2017-01-04T14:57:12.563Z,90
2017-01-04T14:58:22.083Z,105
2017-01-04T14:59:32.478Z,65
2017-01-04T15:00:42.723Z,40
2017-01-04T15:01:52.572Z,10
2017-01-04T15:03:02.012Z,5
2017-01-04T15:04:11.458Z,0
2017-01-04T15:05:21.308Z,0
2017-01-04T15:06:30.877Z,0
2017-01-04T15:07:41.209Z,0
2017-01-04T15:08:51.568Z,0
2017-01-04T15:10:01.890Z,0
2017-01-04T15:11:11.977Z,0
2017-01-04T15:12:22.346Z,0
2017-01-04T15:13:32.337Z,0
2017-01-04T15:14:42.721Z,0
2017-01-04T15:15:53.114Z,0
2017-01-04T15:17:03.082Z,0
2017-01-04T15:18:13.013Z,0
2017-01-04T15:19:22.444Z,0
2017-01-04T15:20:32.303Z,0
2017-01-04T15:21:42.244Z,0
2017-01-04T15:22:52.858Z,0
2017-01-04T15:24:02.722Z,0
2017-01-04T15:25:12.734Z,0
2017-01-04T15:26:22.624Z,0
2017-01-04T15:27:32.916Z,0
2017-01-04T15:28:42.899Z,0
2017-01-04T15:29:52.814Z,0
2017-01-04T15:31:03.220Z,0
2017-01-04T15:32:13.241Z,0
2017-01-04T15:33:23.541Z,0
2017-01-04T15:34:33.854Z,0
2017-01-04T15:35:44.250Z,0
2017-01-04T15:36:54.476Z,0
2017-01-04T15:38:04.921Z,0
2017-01-04T15:39:14.869Z,0
2017-01-04T15:40:25.377Z,0
2017-01-04T15:41:35.660Z,0
2017-01-04T15:42:45.766Z,0
2017-01-04T15:43:55.859Z,0
2017-01-04T15:45:06.497Z,0
2017-01-04T15:46:16.399Z,0
2017-01-04T15:47:26.466Z,0
2017-01-04T15:48:36.743Z,0
2017-01-04T15:49:46.977Z,0
2017-01-04T15:50:57.835Z,0
2017-01-04T15:52:08.994Z,0
2017-01-04T15:53:19.274Z,0
2017-01-04T15:54:29.530Z,0
2017-01-04T15:55:40.405Z,0
2017-01-04T15:56:50.623Z,0
2017-01-04T15:58:01.382Z,0
2017-01-04T15:59:11.903Z,0
2017-01-04T16:00:22.293Z,0
2017-01-04T16:01:32.804Z,0
2017-01-04T16:02:43.125Z,0
2017-01-04T16:03:53.491Z,0
2017-01-04T16:05:03.596Z,0
2017-01-04T16:06:14.102Z,0
2017-01-04T16:07:23.694Z,0
2017-01-04T16:08:33.891Z,0
2017-01-04T16:09:43.781Z,0
2017-01-04T16:10:54.355Z,0
2017-01-04T16:12:04.977Z,0
2017-01-04T16:13:15.489Z,0
2017-01-04T16:14:25.914Z,0
2017-01-04T16:15:36.598Z,0
2017-01-04T16:16:47.453Z,0
2017-01-04T16:17:58.535Z,0
2017-01-04T16:19:09.019Z,0
2017-01-04T16:20:20.231Z,0
2017-01-04T16:21:31.194Z,0
2017-01-04T16:22:42.205Z,0
2017-01-04T16:23:53.632Z,0
2017-01-04T16:25:03.965Z,0
2017-01-04T16:26:14.593Z,0
2017-01-04T16:27:25.969Z,0
2017-01-04T16:28:36.180Z,0
2017-01-04T16:29:47.313Z,0
2017-01-04T16:30:58.755Z,0
2017-01-04T16:32:08.460Z,0
2017-01-04T16:33:18.731Z,0
2017-01-04T16:34:29.991Z,0
2017-01-04T16:35:41.657Z,0
2017-01-04T16:36:53.166Z,0
2017-01-04T16:38:04.430Z,0
2017-01-04T16:39:14.674Z,0
2017-01-04T16:40:26.138Z,0
2017-01-04T16:41:37.719Z,0
2017-01-04T16:42:48.681Z,0
2017-01-04T16:43:59.760Z,0
2017-01-04T16:45:10.999Z,0
2017-01-04T16:46:21.841Z,0
2017-01-04T16:47:31.613Z,0